Latest Coastal Weather Observations for Aireys Inlet

IDV60701

Issued at 11:41 pm EDT Saturday 10 December 2016 (issued every 10 minutes, with the page automatically refreshed every 10 minutes)

About coastal observations | Map of coastal stations | Coastal observations for VIC | Marine services | Other Formats
Station Details ID: 090180 Name: AIREYS INLET Lat: -38.46 Lon: 144.09 Height: 105.0 m
Data from the previous 72 hours. | See also: Recent months at Aireys Inlet
Date/Time
EDT
Temp
°C
Wind Pressure Rain since
9am
mm
Weather Cloud Vis
km
Sea
Height
m
Swell
Dir  Spd
kts
Gust
kts
hPa Trend Height
m
Period
s
Dir
10/11:30pm 12.2 SW 3 5 - - 0.0 - - - - - - -
10/11:00pm 12.6 W 4 5 - - 0.0 - - - - - - -
10/10:30pm 13.2 W 5 6 - - 0.0 - - - - - - -
10/10:00pm 13.4 W 4 7 - - 0.0 - - - - - - -
10/09:30pm 13.1 W 4 5 - - 0.0 - - - - - - -
10/09:00pm 13.6 WSW 6 11 - - 0.0 - - - - - - -
10/08:30pm 13.5 WSW 4 6 - - 0.0 - - - - - - -
10/08:00pm 14.1 SW 7 11 - - 0.0 - - - - - - -
10/07:30pm 14.1 SSW 8 13 - - 0.0 - - - - - - -
10/07:00pm 14.8 SSW 6 9 - - 0.0 - - - - - - -
10/06:30pm 14.9 SW 5 8 - - 0.0 - - - - - - -
10/06:00pm 15.0 S 7 10 - - 0.0 - - - - - - -
10/05:30pm 15.2 SSW 8 11 - - 0.0 - - - - - - -
10/05:00pm 14.9 SSW 6 9 - - 0.0 - - - - - - -
10/04:30pm 15.5 S 5 7 - - 0.0 - - - - - - -
10/04:00pm 16.1 S 5 8 - - 0.0 - - - - - - -
10/03:30pm 15.3 SSW 6 9 - - 0.0 - - - - - - -
10/03:00pm 15.7 S 6 11 - - 0.0 - - - - - - -
10/02:30pm 15.3 SSE 5 7 - - 0.0 - - - - - - -
10/02:00pm 14.9 SSW 4 7 - - 0.0 - - - - - - -
10/01:30pm 15.6 SSW 5 9 - - 0.0 - - - - - - -
10/01:00pm 14.4 SSW 4 7 - - 0.0 - - - - - - -
10/12:30pm 14.8 SSW 5 7 - - 0.0 - - - - - - -
10/12:00pm 14.8 SSW 5 8 - - 0.0 - - - - - - -
10/11:30am 14.3 SW 4 6 - - 0.0 - - - - - - -
10/11:00am 14.2 SSW 5 8 - - 0.0 - - - - - - -
10/10:30am 15.2 SW 6 9 - - 0.0 - - - - - - -
10/10:00am 13.7 SSW 4 7 - - 0.0 - - - - - - -
10/09:30am 13.9 SW 5 7 - - 0.0 - - - - - - -
10/09:00am 13.2 WNW 4 6 - - - - - - - - - -
10/08:30am 12.4 W 6 9 - - - - - - - - - -
10/08:00am 11.3 NW 5 8 - - - - - - - - - -
10/07:30am 11.1 NW 6 9 - - - - - - - - - -
10/07:00am 10.6 NW 6 8 - - - - - - - - - -
10/06:30am 10.2 NW 7 9 - - - - - - - - - -
10/06:00am 10.3 NW 6 9 - - - - - - - - - -
10/05:30am 10.5 WNW 6 8 - - - - - - - - - -
10/05:00am 10.7 WNW 5 7 - - - - - - - - - -
10/04:30am 10.8 W 2 3 - - - - - - - - - -
10/04:00am 10.7 WNW 3 6 - - - - - - - - - -
10/03:30am 11.1 WNW 6 8 - - - - - - - - - -
10/03:00am 11.3 WSW 9 13 - - - - - - - - - -
10/02:30am 10.9 W 6 8 - - - - - - - - - -
10/02:00am 10.8 WNW 6 8 - - - - - - - - - -
10/01:30am 10.9 WNW 5 7 - - - - - - - - - -
10/01:00am 11.2 WSW 7 10 - - - - - - - - - -
10/12:30am 11.1 WSW 7 10 - - 0.0 - - - - - - -
10/12:00am 11.1 W 5 8 - - 0.0 - - - - - - -
 
Date/Time
EDT
Temp
°C
Wind Pressure Rain since
9am
mm
Weather Cloud Vis
km
Sea
Height
m
Swell
Dir  Spd
kts
Gust
kts
hPa Trend Height
m
Period
s
Dir
09/11:30pm 11.1 W 5 9 - - 0.0 - - - - - - -
09/11:00pm 11.3 WSW 10 14 - - 0.0 - - - - - - -
09/10:30pm 11.5 WSW 7 10 - - 0.0 - - - - - - -
09/10:00pm 11.6 WSW 7 10 - - 0.0 - - - - - - -
09/09:30pm 11.7 WSW 7 11 - - 0.0 - - - - - - -
09/09:00pm 11.8 SW 9 14 - - 0.0 - - - - - - -
09/08:30pm 11.8 SW 9 14 - - 0.0 - - - - - - -
09/08:00pm 12.1 SW 11 15 - - 0.0 - - - - - - -
09/07:30pm 13.1 SW 12 17 - - 0.0 - - - - - - -
09/07:00pm 12.7 SW 11 16 - - 0.0 - - - - - - -
09/06:30pm 14.4 SW 13 19 - - 0.0 - - - - - - -
09/06:00pm 12.6 SW 15 22 - - 0.0 - - - - - - -
09/05:30pm 13.3 SW 16 26 - - 0.0 - - - - - - -
09/05:27pm 13.3 SW 15 26 - - 0.0 - - - - - - -
09/05:00pm 13.2 SW 17 25 - - 0.0 - - - - - - -
09/04:39pm 13.5 SW 18 28 - - 0.0 - - - - - - -
09/04:30pm 13.4 SW 18 27 - - 0.0 - - - - - - -
09/04:00pm 15.2 SW 18 28 - - 0.0 - - - - - - -
09/03:33pm 13.9 SSW 15 25 - - 0.0 - - - - - - -
09/03:30pm 13.7 SSW 16 25 - - 0.0 - - - - - - -
09/03:00pm 14.1 SSW 11 20 - - 0.0 - - - - - - -
09/02:30pm 14.2 SW 15 22 - - 0.0 - - - - - - -
09/02:08pm 14.2 SSW 17 27 - - 0.0 - - - - - - -
09/02:00pm 15.2 SSW 17 27 - - 0.0 - - - - - - -
09/01:58pm 15.2 SSW 16 27 - - 0.0 - - - - - - -
09/01:30pm 13.7 SW 16 23 - - 0.0 - - - - - - -
09/01:04pm 13.9 SW 18 29 - - 0.0 - - - - - - -
09/01:00pm 14.1 SSW 19 29 - - 0.0 - - - - - - -
09/12:33pm 13.9 SW 16 26 - - 0.0 - - - - - - -
09/12:30pm 13.8 SW 17 26 - - 0.0 - - - - - - -
09/12:00pm 13.3 SSW 14 24 - - 0.0 - - - - - - -
09/11:53am 13.8 SSW 15 26 - - 0.0 - - - - - - -
09/11:30am 14.7 SW 13 19 - - 0.0 - - - - - - -
09/11:00am 11.9 SW 19 31 - - 0.0 - - - - - - -
09/10:47am 12.7 SW 17 28 - - 0.0 - - - - - - -
09/10:30am 13.0 SW 18 27 - - 0.0 - - - - - - -
09/10:04am 12.1 SW 15 26 - - 0.0 - - - - - - -
09/10:00am 12.2 SW 13 26 - - 0.0 - - - - - - -
09/09:30am 11.7 WSW 14 24 - - 0.0 - - - - - - -
09/09:00am 11.4 SW 16 30 - - - - - - - - - -
09/08:56am 11.2 SW 15 30 - - - - - - - - - -
09/08:30am 10.7 WSW 15 23 - - - - - - - - - -
09/08:00am 9.9 W 12 17 - - - - - - - - - -
09/07:30am 9.4 WSW 15 26 - - - - - - - - - -
09/07:11am 9.3 WSW 15 27 - - - - - - - - - -
09/07:00am 9.7 WSW 12 17 - - - - - - - - - -
09/06:30am 9.4 WSW 18 26 - - - - - - - - - -
09/06:00am 9.7 WSW 15 20 - - - Recent precip. - - - - - -
09/05:30am 9.1 WSW 16 26 - - 1.2 - - - - - - -
09/05:17am 9.7 WSW 15 26 - - 1.2 - - - - - - -
09/05:00am 9.5 WSW 13 18 - - 1.0 - - - - - - -
09/04:30am 9.5 WSW 15 21 - - 1.0 - - - - - - -
09/04:00am 9.2 WSW 15 22 - - 1.0 - - - - - - -
09/03:34am 9.1 WSW 15 28 - - 1.0 - - - - - - -
09/03:30am 9.3 WSW 12 21 - - 1.0 - - - - - - -
09/03:00am 9.1 WSW 13 21 - - 0.6 Recent precip. - - - - - -
09/02:30am 9.2 WSW 15 25 - - 0.6 - - - - - - -
09/02:27am 9.1 WSW 15 25 - - 0.6 - - - - - - -
09/02:00am 10.2 WSW 13 19 - - 0.2 - - - - - - -
09/01:30am 10.4 WSW 13 20 - - 0.2 - - - - - - -
09/01:00am 10.9 WSW 18 29 - - 0.2 - - - - - - -
09/12:58am 10.9 WSW 18 29 - - 0.2 - - - - - - -
09/12:30am 11.0 WSW 17 24 - - 0.2 - - - - - - -
09/12:00am 11.2 WSW 17 25 - - 0.2 - - - - - - -
 
Date/Time
EDT
Temp
°C
Wind Pressure Rain since
9am
mm
Weather Cloud Vis
km
Sea
Height
m
Swell
Dir  Spd
kts
Gust
kts
hPa Trend Height
m
Period
s
Dir
08/11:30pm 11.1 WSW 13 22 - - 0.2 - - - - - - -
08/11:00pm 11.2 WSW 15 21 - - 0.2 - - - - - - -
08/10:30pm 11.7 WSW 12 18 - - 0.2 - - - - - - -
08/10:00pm 11.8 WSW 12 17 - - 0.2 - - - - - - -
08/09:30pm 12.1 W 13 22 - - 0.2 - - - - - - -
08/09:02pm 12.7 WSW 15 26 - - 0.2 - - - - - - -
08/09:00pm 12.8 WSW 16 26 - - 0.2 - - - - - - -
08/08:50pm 12.9 WSW 15 27 - - 0.2 - - - - - - -
08/08:30pm 13.5 W 10 18 - - 0.2 - - - - - - -
08/08:00pm 13.9 WSW 13 18 - - 0.2 - - - - - - -
08/07:30pm 14.1 WSW 16 26 - - 0.2 - - - - - - -
08/07:29pm 14.1 WSW 16 26 - - 0.2 - - - - - - -
08/07:00pm 14.9 SW 17 23 - - 0.2 - - - - - - -
08/06:30pm 14.7 SW 20 28 - - 0.2 - - - - - - -
08/06:00pm 15.3 W 19 31 - - 0.2 - - - - - - -
08/05:37pm 16.1 W 15 28 - - 0.2 - - - - - - -
08/05:30pm 16.4 W 15 24 - - 0.2 - - - - - - -
08/05:00pm 16.0 W 20 37 - - 0.2 - - - - - - -
08/04:59pm 16.1 W 19 37 - - 0.2 - - - - - - -
08/04:48pm 16.5 W 15 26 - - 0.2 - - - - - - -
08/04:30pm 18.0 W 14 26 - - 0.2 - - - - - - -
08/04:00pm 17.0 W 15 29 - - 0.2 - - - - - - -
08/03:30pm 18.4 WNW 27 45 - - 0.2 - - - - - - -
08/03:00pm 18.7 WNW 29 48 - - 0.2 - - - - - - -
08/02:36pm 19.0 WNW 28 57 - - 0.2 - - - - - - -
08/02:30pm 19.0 WNW 29 47 - - 0.2 - - - - - - -
08/02:00pm 19.1 WNW 31 45 - - 0.2 - - - - - - -
08/01:50pm 19.2 WNW 34 53 - - 0.2 - - - - - - -
08/01:49pm 19.3 WNW 34 53 - - 0.2 - - - - - - -
08/01:43pm 19.1 WNW 33 53 - - 0.2 - - - - - - -
08/01:30pm 19.3 WNW 29 52 - - 0.2 - - - - - - -
08/01:00pm 19.7 WNW 28 49 - - 0.2 - - - - - - -
08/12:50pm 19.4 WNW 30 49 - - 0.2 - - - - - - -
08/12:49pm 19.2 WNW 30 49 - - 0.2 - - - - - - -
08/12:46pm 18.7 WNW 31 49 - - 0.2 - - - - - - -
08/12:41pm 19.0 WNW 31 51 - - 0.2 - - - - - - -
08/12:30pm 18.4 NW 35 54 - - 0.2 - - - - - - -
08/12:00pm 18.2 WNW 27 47 - - 0.2 - - - - - - -
08/11:30am 17.3 NW 24 40 - - 0.2 - - - - - - -
08/11:01am 16.8 NW 25 49 - - 0.2 - - - - - - -
08/11:00am 16.8 NW 23 38 - - 0.2 - - - - - - -
08/10:30am 16.3 WNW 27 41 - - 0.2 - - - - - - -
08/10:00am 16.0 WNW 24 39 - - 0.2 - - - - - - -
08/09:30am 16.4 WNW 20 33 - - 0.2 - - - - - - -
08/09:00am 18.2 NNW 20 34 - - 6.2 - - - - - - -
08/08:59am 18.2 NNW 19 34 - - 6.2 - - - - - - -
08/08:58am 18.3 NNW 19 34 - - 6.2 - - - - - - -
08/08:30am 18.0 N 23 38 - - 6.2 - - - - - - -
08/08:03am 17.2 N 20 32 - - 6.2 - - - - - - -
08/08:00am 17.0 N 19 28 - - 6.2 - - - - - - -
08/07:30am 16.4 N 22 32 - - 5.8 - - - - - - -
08/07:02am 16.5 N 22 33 - - 3.0 - - - - - - -
08/07:00am 16.4 N 22 31 - - 3.0 - - - - - - -
08/06:30am 16.8 N 23 34 - - 2.0 - - - - - - -
08/06:00am 18.4 NNW 23 38 - - 0.4 Rain - - - - - -
08/05:30am 22.3 NNW 27 45 - - 0.0 - - - - - - -
08/05:19am 23.9 NNW 23 46 - - 0.0 - - - - - - -
08/05:00am 24.2 NNW 21 31 - - 0.0 - - - - - - -
08/04:49am 23.6 NNW 19 33 - - 0.0 - - - - - - -
08/04:30am 22.8 N 19 28 - - 0.0 - - - - - - -
08/04:15am 22.1 N 18 28 - - 0.0 - - - - - - -
08/04:00am 21.8 N 18 25 - - 0.0 - - - - - - -
08/03:30am 21.1 N 15 22 - - 0.0 - - - - - - -
08/03:00am 20.7 N 12 21 - - 0.0 - - - - - - -
08/02:30am 18.4 NNE 10 14 - - 0.0 - - - - - - -
08/02:00am 16.9 NNE 11 14 - - 0.0 - - - - - - -
08/01:30am 17.1 NNE 11 16 - - 0.0 - - - - - - -
08/01:00am 16.2 NNE 10 14 - - 0.0 - - - - - - -
08/12:30am 15.5 NNE 8 11 - - 0.0 - - - - - - -
08/12:00am 13.7 N 5 7 - - 0.0 - - - - - - -

Other Formats:

Comma delimited format used in spreadsheet applications
http://www.bom.gov.au/fwo/IDV60701/IDV60701.94846.axf

JavaScript Object Notation format (JSON) in row-major order
http://www.bom.gov.au/fwo/IDV60701/IDV60701.94846.json